sensor_id;sensor_type;location;lat;lon;timestamp;pressure;altitude;pressure_sealevel;temperature;humidity
62126;BME280;69591;53.282;6.150;2023-04-25T00:00:57;101037.63;;;17.03;53.88
62126;BME280;69591;53.282;6.150;2023-04-25T00:01:59;101041.13;;;17.03;53.85
62126;BME280;69591;53.282;6.150;2023-04-25T00:03:00;101043.09;;;17.03;53.89
62126;BME280;69591;53.282;6.150;2023-04-25T00:04:02;101041.50;;;17.02;53.92
62126;BME280;69591;53.282;6.150;2023-04-25T00:05:04;101038.78;;;17.02;53.86
62126;BME280;69591;53.282;6.150;2023-04-25T00:06:06;101040.72;;;17.01;54.08
62126;BME280;69591;53.282;6.150;2023-04-25T00:07:07;101043.47;;;17.01;53.69
62126;BME280;69591;53.282;6.150;2023-04-25T00:08:10;101052.78;;;17.00;53.90
62126;BME280;69591;53.282;6.150;2023-04-25T00:09:12;101046.56;;;17.00;53.63
62126;BME280;69591;53.282;6.150;2023-04-25T00:10:13;101054.75;;;17.00;53.88
62126;BME280;69591;53.282;6.150;2023-04-25T00:11:15;101049.31;;;17.00;53.50
62126;BME280;69591;53.282;6.150;2023-04-25T00:12:16;101053.97;;;16.99;53.38
62126;BME280;69591;53.282;6.150;2023-04-25T00:13:18;101048.88;;;16.98;53.19
62126;BME280;69591;53.282;6.150;2023-04-25T00:14:19;101052.38;;;16.98;53.54
62126;BME280;69591;53.282;6.150;2023-04-25T00:15:21;101048.88;;;16.98;53.26
62126;BME280;69591;53.282;6.150;2023-04-25T00:16:22;101054.34;;;16.98;53.31
62126;BME280;69591;53.282;6.150;2023-04-25T00:17:24;101047.31;;;16.97;53.45
62126;BME280;69591;53.282;6.150;2023-04-25T00:18:25;101055.47;;;16.97;53.22
62126;BME280;69591;53.282;6.150;2023-04-25T00:19:27;101045.38;;;16.97;52.98
62126;BME280;69591;53.282;6.150;2023-04-25T00:20:29;101050.03;;;16.97;53.28
62126;BME280;69591;53.282;6.150;2023-04-25T00:21:30;101056.28;;;16.97;53.02
62126;BME280;69591;53.282;6.150;2023-04-25T00:22:32;101051.19;;;16.96;53.07
62126;BME280;69591;53.282;6.150;2023-04-25T00:23:35;101055.47;;;16.97;53.27
62126;BME280;69591;53.282;6.150;2023-04-25T00:24:36;101052.00;;;16.96;53.11
62126;BME280;69591;53.282;6.150;2023-04-25T00:25:38;101058.59;;;16.95;53.21
62126;BME280;69591;53.282;6.150;2023-04-25T00:26:39;101062.09;;;16.96;53.07
62126;BME280;69591;53.282;6.150;2023-04-25T00:27:41;101055.47;;;16.97;52.93
62126;BME280;69591;53.282;6.150;2023-04-25T00:28:42;101056.66;;;16.96;53.00
62126;BME280;69591;53.282;6.150;2023-04-25T00:29:44;101055.09;;;16.95;52.96
62126;BME280;69591;53.282;6.150;2023-04-25T00:30:45;101063.28;;;16.95;53.03
62126;BME280;69591;53.282;6.150;2023-04-25T00:31:47;101064.03;;;16.95;52.97
62126;BME280;69591;53.282;6.150;2023-04-25T00:32:49;101065.22;;;16.94;52.93
62126;BME280;69591;53.282;6.150;2023-04-25T00:33:50;101067.56;;;16.96;52.62
62126;BME280;69591;53.282;6.150;2023-04-25T00:34:52;101067.94;;;16.94;52.66
62126;BME280;69591;53.282;6.150;2023-04-25T00:35:54;101055.09;;;16.95;52.86
62126;BME280;69591;53.282;6.150;2023-04-25T00:36:55;101060.56;;;16.95;52.74
62126;BME280;69591;53.282;6.150;2023-04-25T00:37:57;101066.00;;;16.95;52.64
62126;BME280;69591;53.282;6.150;2023-04-25T00:39:00;101063.28;;;16.95;52.64
62126;BME280;69591;53.282;6.150;2023-04-25T00:40:01;101071.47;;;16.95;52.50
62126;BME280;69591;53.282;6.150;2023-04-25T00:41:03;101067.16;;;16.94;52.57
62126;BME280;69591;53.282;6.150;2023-04-25T00:42:05;101065.59;;;16.93;52.62
62126;BME280;69591;53.282;6.150;2023-04-25T00:43:07;101064.81;;;16.92;52.42
62126;BME280;69591;53.282;6.150;2023-04-25T00:44:09;101062.88;;;16.93;52.56
62126;BME280;69591;53.282;6.150;2023-04-25T00:45:12;101055.84;;;16.92;52.78
62126;BME280;69591;53.282;6.150;2023-04-25T00:46:14;101058.59;;;16.92;52.58
62126;BME280;69591;53.282;6.150;2023-04-25T00:47:15;101060.53;;;16.91;52.50
62126;BME280;69591;53.282;6.150;2023-04-25T00:48:17;101058.59;;;16.92;52.21
62126;BME280;69591;53.282;6.150;2023-04-25T00:49:19;101063.25;;;16.91;52.36
62126;BME280;69591;53.282;6.150;2023-04-25T00:50:20;101060.91;;;16.90;52.23
62126;BME280;69591;53.282;6.150;2023-04-25T00:51:22;101056.22;;;16.90;52.58
62126;BME280;69591;53.282;6.150;2023-04-25T00:52:24;101060.91;;;16.90;52.37
62126;BME280;69591;53.282;6.150;2023-04-25T00:53:26;101062.84;;;16.89;52.40
62126;BME280;69591;53.282;6.150;2023-04-25T00:54:29;101062.44;;;16.91;52.11
62126;BME280;69591;53.282;6.150;2023-04-25T00:55:31;101062.84;;;16.89;52.28
62126;BME280;69591;53.282;6.150;2023-04-25T00:56:33;101067.50;;;16.89;52.02
62126;BME280;69591;53.282;6.150;2023-04-25T00:57:35;101064.75;;;16.89;51.95
62126;BME280;69591;53.282;6.150;2023-04-25T00:58:36;101064.75;;;16.89;52.14
62126;BME280;69591;53.282;6.150;2023-04-25T00:59:38;101060.47;;;16.88;52.23
62126;BME280;69591;53.282;6.150;2023-04-25T01:00:44;101070.59;;;16.87;51.85
62126;BME280;69591;53.282;6.150;2023-04-25T01:01:46;101072.56;;;16.87;51.91
62126;BME280;69591;53.282;6.150;2023-04-25T01:02:47;101072.56;;;16.87;51.78
62126;BME280;69591;53.282;6.150;2023-04-25T01:03:49;101065.53;;;16.86;51.97
62126;BME280;69591;53.282;6.150;2023-04-25T01:04:51;101062.78;;;16.86;51.95
62126;BME280;69591;53.282;6.150;2023-04-25T01:05:53;101070.22;;;16.85;51.56
62126;BME280;69591;53.282;6.150;2023-04-25T01:06:54;101079.16;;;16.86;51.47
62126;BME280;69591;53.282;6.150;2023-04-25T01:07:56;101074.88;;;16.85;51.67
62126;BME280;69591;53.282;6.150;2023-04-25T01:08:58;101072.94;;;16.85;51.68
62126;BME280;69591;53.282;6.150;2023-04-25T01:10:02;101077.59;;;16.85;51.39
62126;BME280;69591;53.282;6.150;2023-04-25T01:11:03;101070.22;;;16.85;51.52
62126;BME280;69591;53.282;6.150;2023-04-25T01:12:05;101072.16;;;16.85;51.60
62126;BME280;69591;53.282;6.150;2023-04-25T01:13:08;101076.03;;;16.84;51.61
62126;BME280;69591;53.282;6.150;2023-04-25T01:14:09;101078.78;;;16.84;51.35
62126;BME280;69591;53.282;6.150;2023-04-25T01:15:11;101079.53;;;16.84;51.34
62126;BME280;69591;53.282;6.150;2023-04-25T01:16:12;101076.03;;;16.84;51.57
62126;BME280;69591;53.282;6.150;2023-04-25T01:17:14;101077.19;;;16.83;51.32
62126;BME280;69591;53.282;6.150;2023-04-25T01:18:16;101076.41;;;16.82;51.50
62126;BME280;69591;53.282;6.150;2023-04-25T01:19:17;101079.16;;;16.82;51.22
62126;BME280;69591;53.282;6.150;2023-04-25T01:20:20;101077.56;;;16.81;51.13
62126;BME280;69591;53.282;6.150;2023-04-25T01:21:24;101079.53;;;16.81;51.43
62126;BME280;69591;53.282;6.150;2023-04-25T01:22:25;101073.28;;;16.80;51.21
62126;BME280;69591;53.282;6.150;2023-04-25T01:23:27;101084.97;;;16.81;51.09
62126;BME280;69591;53.282;6.150;2023-04-25T01:24:28;101084.19;;;16.80;51.27
62126;BME280;69591;53.282;6.150;2023-04-25T01:25:30;101081.84;;;16.79;50.84
62126;BME280;69591;53.282;6.150;2023-04-25T01:26:32;101079.88;;;16.79;50.99
62126;BME280;69591;53.282;6.150;2023-04-25T01:27:33;101080.66;;;16.80;51.06
62126;BME280;69591;53.282;6.150;2023-04-25T01:28:35;101087.28;;;16.79;50.96
62126;BME280;69591;53.282;6.150;2023-04-25T01:29:37;101084.16;;;16.77;51.08
62126;BME280;69591;53.282;6.150;2023-04-25T01:30:38;101077.53;;;16.78;51.23
62126;BME280;69591;53.282;6.150;2023-04-25T01:31:40;101084.16;;;16.77;51.18
62126;BME280;69591;53.282;6.150;2023-04-25T01:32:42;101089.59;;;16.77;51.07
62126;BME280;69591;53.282;6.150;2023-04-25T01:33:44;101090.78;;;16.76;51.03
62126;BME280;69591;53.282;6.150;2023-04-25T01:34:45;101094.25;;;16.76;51.14
62126;BME280;69591;53.282;6.150;2023-04-25T01:35:47;101093.50;;;16.76;50.92
62126;BME280;69591;53.282;6.150;2023-04-25T01:36:50;101085.31;;;16.76;51.04
62126;BME280;69591;53.282;6.150;2023-04-25T01:37:51;101091.91;;;16.75;50.81
62126;BME280;69591;53.282;6.150;2023-04-25T01:38:53;101089.19;;;16.75;51.03
62126;BME280;69591;53.282;6.150;2023-04-25T01:39:56;101091.16;;;16.74;51.21
62126;BME280;69591;53.282;6.150;2023-04-25T01:40:57;101100.09;;;16.75;50.67
62126;BME280;69591;53.282;6.150;2023-04-25T01:41:59;101093.09;;;16.74;50.95
62126;BME280;69591;53.282;6.150;2023-04-25T01:43:01;101097.75;;;16.73;51.05
62126;BME280;69591;53.282;6.150;2023-04-25T01:44:02;101101.25;;;16.74;50.45
62126;BME280;69591;53.282;6.150;2023-04-25T01:45:05;101100.47;;;16.73;50.58
62126;BME280;69591;53.282;6.150;2023-04-25T01:46:07;101102.44;;;16.73;50.87
62126;BME280;69591;53.282;6.150;2023-04-25T01:47:08;101100.84;;;16.72;50.69
62126;BME280;69591;53.282;6.150;2023-04-25T01:48:10;101109.03;;;16.72;50.81
62126;BME280;69591;53.282;6.150;2023-04-25T01:49:12;101107.47;;;16.71;50.58
62126;BME280;69591;53.282;6.150;2023-04-25T01:50:16;101110.19;;;16.71;50.99
62126;BME280;69591;53.282;6.150;2023-04-25T01:51:19;101111.38;;;16.70;50.87
62126;BME280;69591;53.282;6.150;2023-04-25T01:52:22;101116.81;;;16.70;50.54
62126;BME280;69591;53.282;6.150;2023-04-25T01:53:23;101115.22;;;16.69;50.58
62126;BME280;69591;53.282;6.150;2023-04-25T01:54:25;101110.56;;;16.69;50.59
62126;BME280;69591;53.282;6.150;2023-04-25T01:55:27;101116.03;;;16.69;50.69
62126;BME280;69591;53.282;6.150;2023-04-25T01:56:39;101111.72;;;16.68;50.54
62126;BME280;69591;53.282;6.150;2023-04-25T01:57:43;101112.50;;;16.69;50.50
62126;BME280;69591;53.282;6.150;2023-04-25T01:58:45;101119.13;;;16.68;50.65
62126;BME280;69591;53.282;6.150;2023-04-25T02:00:10;101118.34;;;16.67;50.68
62126;BME280;69591;53.282;6.150;2023-04-25T02:01:14;101120.25;;;16.67;50.48
62126;BME280;69591;53.282;6.150;2023-04-25T02:02:22;101120.25;;;16.67;50.15
62126;BME280;69591;53.282;6.150;2023-04-25T02:03:24;101128.44;;;16.67;50.45
62126;BME280;69591;53.282;6.150;2023-04-25T02:04:26;101124.16;;;16.66;50.53
62126;BME280;69591;53.282;6.150;2023-04-25T02:05:28;101129.25;;;16.67;50.36
62126;BME280;69591;53.282;6.150;2023-04-25T02:06:35;101130.41;;;16.66;50.25
62126;BME280;69591;53.282;6.150;2023-04-25T02:07:38;101127.69;;;16.66;50.39
62126;BME280;69591;53.282;6.150;2023-04-25T02:08:39;101126.88;;;16.66;50.08
62126;BME280;69591;53.282;6.150;2023-04-25T02:09:41;101126.09;;;16.65;50.13
62126;BME280;69591;53.282;6.150;2023-04-25T02:10:45;101130.00;;;16.64;50.10
62126;BME280;69591;53.282;6.150;2023-04-25T02:11:52;101125.34;;;16.65;50.47
62126;BME280;69591;53.282;6.150;2023-04-25T02:13:09;101129.19;;;16.64;50.27
62126;BME280;69591;53.282;6.150;2023-04-25T02:14:24;101125.72;;;16.63;50.01
62126;BME280;69591;53.282;6.150;2023-04-25T02:15:39;101133.09;;;16.63;50.28
62126;BME280;69591;53.282;6.150;2023-04-25T02:16:52;101125.72;;;16.63;50.26
62126;BME280;69591;53.282;6.150;2023-04-25T02:17:53;101127.63;;;16.63;50.31
62126;BME280;69591;53.282;6.150;2023-04-25T02:18:55;101127.63;;;16.63;50.26
62126;BME280;69591;53.282;6.150;2023-04-25T02:19:56;101129.56;;;16.62;49.87
62126;BME280;69591;53.282;6.150;2023-04-25T02:20:58;101127.63;;;16.63;50.12
62126;BME280;69591;53.282;6.150;2023-04-25T02:22:00;101137.00;;;16.62;50.12
62126;BME280;69591;53.282;6.150;2023-04-25T02:23:02;101131.53;;;16.62;49.60
62126;BME280;69591;53.282;6.150;2023-04-25T02:24:05;101132.31;;;16.62;49.70
62126;BME280;69591;53.282;6.150;2023-04-25T02:25:08;101131.53;;;16.62;49.96
62126;BME280;69591;53.282;6.150;2023-04-25T02:26:10;101128.00;;;16.61;49.91
62126;BME280;69591;53.282;6.150;2023-04-25T02:27:11;101132.69;;;16.61;49.45
62126;BME280;69591;53.282;6.150;2023-04-25T02:28:13;101129.94;;;16.61;49.81
62126;BME280;69591;53.282;6.150;2023-04-25T02:29:14;101127.59;;;16.59;49.87
62126;BME280;69591;53.282;6.150;2023-04-25T02:30:16;101133.06;;;16.59;49.86
62126;BME280;69591;53.282;6.150;2023-04-25T02:31:18;101133.06;;;16.59;49.71
62126;BME280;69591;53.282;6.150;2023-04-25T02:32:19;101126.81;;;16.59;49.76
62126;BME280;69591;53.282;6.150;2023-04-25T02:33:21;101126.03;;;16.58;49.93
62126;BME280;69591;53.282;6.150;2023-04-25T02:34:22;101130.69;;;16.58;49.82
62126;BME280;69591;53.282;6.150;2023-04-25T02:35:24;101133.41;;;16.58;49.83
62126;BME280;69591;53.282;6.150;2023-04-25T02:36:28;101131.88;;;16.57;49.54
62126;BME280;69591;53.282;6.150;2023-04-25T02:37:29;101127.97;;;16.58;49.56
62126;BME280;69591;53.282;6.150;2023-04-25T02:38:32;101130.69;;;16.58;49.74
62126;BME280;69591;53.282;6.150;2023-04-25T02:39:34;101131.06;;;16.56;49.64
62126;BME280;69591;53.282;6.150;2023-04-25T02:40:35;101138.09;;;16.57;49.66
62126;BME280;69591;53.282;6.150;2023-04-25T02:41:37;101129.13;;;16.57;49.71
62126;BME280;69591;53.282;6.150;2023-04-25T02:42:38;101133.78;;;16.56;49.35
62126;BME280;69591;53.282;6.150;2023-04-25T02:43:40;101126.78;;;16.55;49.44
62126;BME280;69591;53.282;6.150;2023-04-25T02:44:41;101135.72;;;16.56;49.58
62126;BME280;69591;53.282;6.150;2023-04-25T02:45:43;101133.00;;;16.56;49.62
62126;BME280;69591;53.282;6.150;2023-04-25T02:46:46;101133.00;;;16.56;49.12
62126;BME280;69591;53.282;6.150;2023-04-25T02:47:47;101139.63;;;16.55;49.21
62126;BME280;69591;53.282;6.150;2023-04-25T02:48:49;101142.34;;;16.55;49.16
62126;BME280;69591;53.282;6.150;2023-04-25T02:49:50;101145.06;;;16.55;49.45
62126;BME280;69591;53.282;6.150;2023-04-25T02:50:52;101146.25;;;16.54;49.29
62126;BME280;69591;53.282;6.150;2023-04-25T02:51:53;101146.25;;;16.54;49.17
62126;BME280;69591;53.282;6.150;2023-04-25T02:52:55;101144.66;;;16.53;48.96
62126;BME280;69591;53.282;6.150;2023-04-25T02:54:03;101131.81;;;16.53;48.81
62126;BME280;69591;53.282;6.150;2023-04-25T02:55:08;101144.66;;;16.53;49.06
62126;BME280;69591;53.282;6.150;2023-04-25T02:56:11;101144.66;;;16.53;48.92
62126;BME280;69591;53.282;6.150;2023-04-25T02:57:12;101144.66;;;16.53;49.09
62126;BME280;69591;53.282;6.150;2023-04-25T02:58:14;101140.38;;;16.52;48.78
62126;BME280;69591;53.282;6.150;2023-04-25T02:59:21;101139.19;;;16.53;48.73
62126;BME280;69591;53.282;6.150;2023-04-25T03:00:23;101138.44;;;16.52;48.88
62126;BME280;69591;53.282;6.150;2023-04-25T03:01:24;101140.38;;;16.52;48.93
62126;BME280;69591;53.282;6.150;2023-04-25T03:02:26;101148.56;;;16.52;48.81
62126;BME280;69591;53.282;6.150;2023-04-25T03:03:28;101147.75;;;16.51;48.90
62126;BME280;69591;53.282;6.150;2023-04-25T03:04:29;101140.38;;;16.52;48.58
62126;BME280;69591;53.282;6.150;2023-04-25T03:05:31;101139.94;;;16.50;49.05
62126;BME280;69591;53.282;6.150;2023-04-25T03:06:33;101142.69;;;16.50;48.78
62126;BME280;69591;53.282;6.150;2023-04-25T03:07:34;101147.00;;;16.51;48.81
62126;BME280;69591;53.282;6.150;2023-04-25T03:08:36;101142.69;;;16.50;48.78
62126;BME280;69591;53.282;6.150;2023-04-25T03:09:39;101150.84;;;16.50;48.58
62126;BME280;69591;53.282;6.150;2023-04-25T03:10:41;101144.59;;;16.49;48.59
62126;BME280;69591;53.282;6.150;2023-04-25T03:11:44;101148.13;;;16.50;48.54
62126;BME280;69591;53.282;6.150;2023-04-25T03:12:45;101144.59;;;16.49;48.79
62126;BME280;69591;53.282;6.150;2023-04-25T03:13:47;101143.84;;;16.49;48.67
62126;BME280;69591;53.282;6.150;2023-04-25T03:14:49;101141.13;;;16.49;48.57
62126;BME280;69591;53.282;6.150;2023-04-25T03:15:50;101140.31;;;16.48;48.73
62126;BME280;69591;53.282;6.150;2023-04-25T03:16:52;101135.66;;;16.49;48.63
62126;BME280;69591;53.282;6.150;2023-04-25T03:17:54;101136.81;;;16.48;48.66
62126;BME280;69591;53.282;6.150;2023-04-25T03:18:57;101136.81;;;16.48;48.50
62126;BME280;69591;53.282;6.150;2023-04-25T03:20:00;101140.69;;;16.47;48.70
62126;BME280;69591;53.282;6.150;2023-04-25T03:21:03;101148.88;;;16.47;48.32
62126;BME280;69591;53.282;6.150;2023-04-25T03:22:05;101141.88;;;16.46;48.54
62126;BME280;69591;53.282;6.150;2023-04-25T03:23:07;101146.94;;;16.47;48.45
62126;BME280;69591;53.282;6.150;2023-04-25T03:24:08;101149.25;;;16.45;48.42
62126;BME280;69591;53.282;6.150;2023-04-25T03:25:11;101148.44;;;16.44;48.41
62126;BME280;69591;53.282;6.150;2023-04-25T03:26:14;101150.03;;;16.46;48.30
62126;BME280;69591;53.282;6.150;2023-04-25T03:27:16;101145.25;;;16.39;48.22
62126;BME280;69591;53.282;6.150;2023-04-25T03:28:18;101153.91;;;16.44;48.18
62126;BME280;69591;53.282;6.150;2023-04-25T03:29:19;101146.06;;;16.43;48.29
62126;BME280;69591;53.282;6.150;2023-04-25T03:30:21;101153.47;;;16.42;48.19
62126;BME280;69591;53.282;6.150;2023-04-25T03:31:23;101151.53;;;16.43;48.12
62126;BME280;69591;53.282;6.150;2023-04-25T03:32:24;101150.75;;;16.42;48.36
62126;BME280;69591;53.282;6.150;2023-04-25T03:33:26;101150.75;;;16.42;48.17
62126;BME280;69591;53.282;6.150;2023-04-25T03:34:27;101151.91;;;16.41;48.32
62126;BME280;69591;53.282;6.150;2023-04-25T03:35:29;101149.16;;;16.41;48.19
62126;BME280;69591;53.282;6.150;2023-04-25T03:36:30;101157.34;;;16.41;48.37
62126;BME280;69591;53.282;6.150;2023-04-25T03:37:32;101158.50;;;16.40;48.18
62126;BME280;69591;53.282;6.150;2023-04-25T03:38:34;101160.06;;;16.41;48.25
62126;BME280;69591;53.282;6.150;2023-04-25T03:39:35;101162.03;;;16.41;48.29
62126;BME280;69591;53.282;6.150;2023-04-25T03:40:38;101157.72;;;16.40;48.29
62126;BME280;69591;53.282;6.150;2023-04-25T03:42:00;101162.38;;;16.39;47.98
62126;BME280;69591;53.282;6.150;2023-04-25T03:43:02;101160.03;;;16.38;48.00
62126;BME280;69591;53.282;6.150;2023-04-25T03:44:04;101164.34;;;16.39;48.36
62126;BME280;69591;53.282;6.150;2023-04-25T03:45:07;101166.28;;;16.38;48.17
62126;BME280;69591;53.282;6.150;2023-04-25T03:46:09;101165.91;;;16.40;47.98
62126;BME280;69591;53.282;6.150;2023-04-25T03:47:11;101162.75;;;16.38;48.16
62126;BME280;69591;53.282;6.150;2023-04-25T03:48:13;101160.03;;;16.38;48.17
62126;BME280;69591;53.282;6.150;2023-04-25T03:49:14;101164.72;;;16.37;48.20
62126;BME280;69591;53.282;6.150;2023-04-25T03:50:30;101174.03;;;16.36;48.11
62126;BME280;69591;53.282;6.150;2023-04-25T03:51:32;101168.56;;;16.36;48.29
62126;BME280;69591;53.282;6.150;2023-04-25T03:52:35;101174.03;;;16.36;47.99
62126;BME280;69591;53.282;6.150;2023-04-25T03:53:37;101177.53;;;16.37;48.24
62126;BME280;69591;53.282;6.150;2023-04-25T03:54:53;101170.53;;;16.36;48.14
62126;BME280;69591;53.282;6.150;2023-04-25T03:55:59;101179.47;;;16.36;48.12
62126;BME280;69591;53.282;6.150;2023-04-25T03:57:00;101182.19;;;16.36;47.99
62126;BME280;69591;53.282;6.150;2023-04-25T03:58:05;101178.72;;;16.36;48.08
62126;BME280;69591;53.282;6.150;2023-04-25T03:59:06;101183.38;;;16.35;48.33
62126;BME280;69591;53.282;6.150;2023-04-25T04:00:09;101175.19;;;16.35;48.17
62126;BME280;69591;53.282;6.150;2023-04-25T04:01:16;101177.13;;;16.35;48.18
62126;BME280;69591;53.282;6.150;2023-04-25T04:02:18;101179.09;;;16.34;48.35
62126;BME280;69591;53.282;6.150;2023-04-25T04:03:20;101183.38;;;16.35;48.08
62126;BME280;69591;53.282;6.150;2023-04-25T04:04:22;101176.34;;;16.34;48.19
62126;BME280;69591;53.282;6.150;2023-04-25T04:05:24;101177.50;;;16.33;48.00
62126;BME280;69591;53.282;6.150;2023-04-25T04:06:29;101182.56;;;16.35;47.81
62126;BME280;69591;53.282;6.150;2023-04-25T04:07:37;101176.34;;;16.34;47.92
62126;BME280;69591;53.282;6.150;2023-04-25T04:08:39;101180.22;;;16.33;47.86
62126;BME280;69591;53.282;6.150;2023-04-25T04:09:41;101180.22;;;16.33;47.86
62126;BME280;69591;53.282;6.150;2023-04-25T04:10:48;101184.91;;;16.33;47.95
62126;BME280;69591;53.282;6.150;2023-04-25T04:11:51;101184.91;;;16.33;47.82
62126;BME280;69591;53.282;6.150;2023-04-25T04:12:52;101191.13;;;16.33;47.66
62126;BME280;69591;53.282;6.150;2023-04-25T04:13:54;101189.56;;;16.32;47.71
62126;BME280;69591;53.282;6.150;2023-04-25T04:14:56;101193.44;;;16.31;47.69
62126;BME280;69591;53.282;6.150;2023-04-25T04:15:57;101202.38;;;16.32;47.47
62126;BME280;69591;53.282;6.150;2023-04-25T04:16:59;101200.03;;;16.30;47.78
62126;BME280;69591;53.282;6.150;2023-04-25T04:18:02;101197.31;;;16.30;47.87
62126;BME280;69591;53.282;6.150;2023-04-25T04:19:04;101198.09;;;16.31;47.82
62126;BME280;69591;53.282;6.150;2023-04-25T04:20:07;101191.06;;;16.30;47.61
62126;BME280;69591;53.282;6.150;2023-04-25T04:21:08;101201.19;;;16.29;47.69
62126;BME280;69591;53.282;6.150;2023-04-25T04:22:13;101201.19;;;16.29;47.73
62126;BME280;69591;53.282;6.150;2023-04-25T04:23:15;101209.38;;;16.29;47.65
62126;BME280;69591;53.282;6.150;2023-04-25T04:24:16;101206.66;;;16.29;47.80
62126;BME280;69591;53.282;6.150;2023-04-25T04:25:29;101201.19;;;16.29;47.55
62126;BME280;69591;53.282;6.150;2023-04-25T04:26:41;101206.66;;;16.29;47.68
62126;BME280;69591;53.282;6.150;2023-04-25T04:27:58;101205.84;;;16.29;47.62
62126;BME280;69591;53.282;6.150;2023-04-25T04:29:30;101205.06;;;16.28;47.72
62126;BME280;69591;53.282;6.150;2023-04-25T04:30:40;101204.28;;;16.28;47.34
62126;BME280;69591;53.282;6.150;2023-04-25T04:31:42;101207.03;;;16.28;47.60
62126;BME280;69591;53.282;6.150;2023-04-25T04:32:44;101203.50;;;16.27;47.40
62126;BME280;69591;53.282;6.150;2023-04-25T04:33:47;101211.69;;;16.27;47.46
62126;BME280;69591;53.282;6.150;2023-04-25T04:34:49;101219.06;;;16.27;47.72
62126;BME280;69591;53.282;6.150;2023-04-25T04:35:53;101211.69;;;16.27;47.42
62126;BME280;69591;53.282;6.150;2023-04-25T04:36:54;101208.94;;;16.27;47.57
62126;BME280;69591;53.282;6.150;2023-04-25T04:37:56;101211.69;;;16.27;47.55
62126;BME280;69591;53.282;6.150;2023-04-25T04:39:00;101212.84;;;16.26;47.39
62126;BME280;69591;53.282;6.150;2023-04-25T04:40:17;101214.41;;;16.27;47.80
62126;BME280;69591;53.282;6.150;2023-04-25T04:41:54;101212.84;;;16.26;47.83
62126;BME280;69591;53.282;6.150;2023-04-25T04:43:35;101217.50;;;16.26;47.39
62126;BME280;69591;53.282;6.150;2023-04-25T04:44:45;101220.22;;;16.26;47.17
62126;BME280;69591;53.282;6.150;2023-04-25T04:46:05;101216.69;;;16.25;47.38
62126;BME280;69591;53.282;6.150;2023-04-25T04:47:15;101220.59;;;16.24;47.28
62126;BME280;69591;53.282;6.150;2023-04-25T04:48:55;101215.94;;;16.25;47.24
62126;BME280;69591;53.282;6.150;2023-04-25T04:50:35;101226.03;;;16.24;47.28
62126;BME280;69591;53.282;6.150;2023-04-25T04:51:56;101227.22;;;16.23;47.18
62126;BME280;69591;53.282;6.150;2023-04-25T04:53:18;101241.59;;;16.24;47.35
62126;BME280;69591;53.282;6.150;2023-04-25T04:54:32;101236.50;;;16.22;47.04
62126;BME280;69591;53.282;6.150;2023-04-25T04:55:49;101233.78;;;16.22;47.38
62126;BME280;69591;53.282;6.150;2023-04-25T04:57:28;101241.97;;;16.22;47.25
62126;BME280;69591;53.282;6.150;2023-04-25T04:58:50;101243.91;;;16.22;47.25
62126;BME280;69591;53.282;6.150;2023-04-25T05:00:08;101245.84;;;16.21;47.25
62126;BME280;69591;53.282;6.150;2023-04-25T05:01:28;101247.78;;;16.21;47.43
62126;BME280;69591;53.282;6.150;2023-04-25T05:02:34;101247.00;;;16.20;47.19
62126;BME280;69591;53.282;6.150;2023-04-25T05:03:47;101253.22;;;16.21;47.10
62126;BME280;69591;53.282;6.150;2023-04-25T05:05:09;101251.31;;;16.21;47.07
62126;BME280;69591;53.282;6.150;2023-04-25T05:06:29;101248.56;;;16.21;47.23
62126;BME280;69591;53.282;6.150;2023-04-25T05:07:49;101259.47;;;16.21;47.52
62126;BME280;69591;53.282;6.150;2023-04-25T05:09:15;101254.03;;;16.21;48.00
62126;BME280;69591;53.282;6.150;2023-04-25T05:10:28;101244.69;;;16.22;48.06
62126;BME280;69591;53.282;6.150;2023-04-25T05:11:38;101249.00;;;16.23;48.30
62126;BME280;69591;53.282;6.150;2023-04-25T05:12:51;101253.28;;;16.24;48.38
62126;BME280;69591;53.282;6.150;2023-04-25T05:14:12;101251.34;;;16.25;48.36
62126;BME280;69591;53.282;6.150;2023-04-25T05:15:21;101256.44;;;16.26;48.43
62126;BME280;69591;53.282;6.150;2023-04-25T05:16:52;101251.75;;;16.27;48.48
62126;BME280;69591;53.282;6.150;2023-04-25T05:18:04;101252.19;;;16.29;48.67
62126;BME280;69591;53.282;6.150;2023-04-25T05:19:24;101257.63;;;16.29;48.75
62126;BME280;69591;53.282;6.150;2023-04-25T05:20:46;101259.97;;;16.30;49.03
62126;BME280;69591;53.282;6.150;2023-04-25T05:22:05;101254.16;;;16.32;49.11
62126;BME280;69591;53.282;6.150;2023-04-25T05:23:13;101259.25;;;16.33;48.97
62126;BME280;69591;53.282;6.150;2023-04-25T05:24:49;101258.09;;;16.34;48.95
62126;BME280;69591;53.282;6.150;2023-04-25T05:26:09;101259.66;;;16.35;49.27
62126;BME280;69591;53.282;6.150;2023-04-25T05:27:19;101262.81;;;16.37;49.36
62126;BME280;69591;53.282;6.150;2023-04-25T05:28:33;101262.81;;;16.37;49.09
62126;BME280;69591;53.282;6.150;2023-04-25T05:29:54;101257.75;;;16.39;49.25
62126;BME280;69591;53.282;6.150;2023-04-25T05:31:16;101258.56;;;16.40;49.38
62126;BME280;69591;53.282;6.150;2023-04-25T05:32:35;101260.91;;;16.41;49.74
62126;BME280;69591;53.282;6.150;2023-04-25T05:33:37;101260.53;;;16.43;49.28
62126;BME280;69591;53.282;6.150;2023-04-25T05:34:39;101262.50;;;16.42;49.51
62126;BME280;69591;53.282;6.150;2023-04-25T05:35:47;101261.34;;;16.43;49.56
62126;BME280;69591;53.282;6.150;2023-04-25T05:36:49;101262.94;;;16.44;49.61
62126;BME280;69591;53.282;6.150;2023-04-25T05:37:50;101269.16;;;16.45;49.54
62126;BME280;69591;53.282;6.150;2023-04-25T05:38:54;101268.81;;;16.47;49.77
62126;BME280;69591;53.282;6.150;2023-04-25T05:40:16;101274.25;;;16.47;49.63
62126;BME280;69591;53.282;6.150;2023-04-25T05:41:17;101268.44;;;16.48;49.72